Time;durP1;ratioP1;P1;durP2;ratioP2;P2;SDS_P1;SDS_P2;PMS_P1;PMS_P2;Temp;Humidity;BMP_temperature;BMP_pressure;BME280_temperature;BME280_humidity;BME280_pressure;Samples;Min_cycle;Max_cycle;Signal;HPM_P1;HPM_P2
2023/03/22 00:00:47;;;;;;;21.85;12.90;;;10.20;99.90;;;;;;5055373;28;20040;-70
2023/03/22 00:03:13;;;;;;;21.83;12.80;;;10.20;99.90;;;;;;5063402;28;20037;-70
2023/03/22 00:05:39;;;;;;;24.88;12.30;;;10.20;99.90;;;;;;5070543;28;20568;-70
2023/03/22 00:08:06;;;;;;;18.63;12.10;;;10.20;99.90;;;;;;5055438;28;20041;-71
2023/03/22 00:10:32;;;;;;;20.55;11.73;;;10.30;99.90;;;;;;5073255;28;20036;-70
2023/03/22 00:12:59;;;;;;;18.17;9.75;;;10.20;99.90;;;;;;5072962;28;20040;-71
2023/03/22 00:15:25;;;;;;;20.25;9.80;;;10.20;99.90;;;;;;5072927;28;20070;-71
2023/03/22 00:17:51;;;;;;;24.15;11.65;;;10.10;99.90;;;;;;5055033;28;20035;-71
2023/03/22 00:20:18;;;;;;;19.35;11.20;;;10.10;99.90;;;;;;5072984;28;20036;-71
2023/03/22 00:22:44;;;;;;;25.60;10.65;;;10.20;99.90;;;;;;5061016;22;20069;-68
2023/03/22 00:25:10;;;;;;;26.20;10.45;;;10.10;99.90;;;;;;5031273;28;20459;-70
2023/03/22 00:27:35;;;;;;;20.80;10.25;;;10.10;99.90;;;;;;5032477;28;20048;-70
2023/03/22 00:30:02;;;;;;;18.38;9.65;;;10.10;99.90;;;;;;5032955;28;20119;-70
2023/03/22 00:32:27;;;;;;;16.15;8.73;;;10.10;99.90;;;;;;5031411;28;20046;-70
2023/03/22 00:34:53;;;;;;;19.98;9.70;;;10.10;99.90;;;;;;5032626;28;20045;-70
2023/03/22 00:37:18;;;;;;;17.65;8.52;;;10.10;99.90;;;;;;5014974;28;20046;-70
2023/03/22 00:39:44;;;;;;;20.10;8.80;;;10.00;99.90;;;;;;5031682;28;20080;-70
2023/03/22 00:42:10;;;;;;;14.38;8.32;;;10.10;99.90;;;;;;5032507;28;20048;-70
2023/03/22 00:44:35;;;;;;;13.73;8.32;;;10.10;99.90;;;;;;5032512;28;20041;-70
2023/03/22 00:47:01;;;;;;;21.10;8.32;;;10.00;99.90;;;;;;5032604;28;20048;-70
2023/03/22 00:49:28;;;;;;;16.88;8.25;;;10.00;99.90;;;;;;5031508;28;20128;-70
2023/03/22 00:51:53;;;;;;;16.65;8.43;;;10.00;99.90;;;;;;5031183;28;20042;-70
2023/03/22 00:54:20;;;;;;;14.13;7.38;;;10.00;99.90;;;;;;5030773;28;20053;-70
2023/03/22 00:56:45;;;;;;;14.75;7.50;;;10.00;99.90;;;;;;5031152;28;20057;-70
2023/03/22 00:59:12;;;;;;;17.90;7.50;;;10.00;99.90;;;;;;5032386;28;20221;-70
2023/03/22 01:01:39;;;;;;;15.13;7.68;;;9.90;99.90;;;;;;5032389;28;20037;-70
2023/03/22 01:04:05;;;;;;;16.70;7.25;;;10.00;99.90;;;;;;5032114;28;20037;-70
2023/03/22 01:06:32;;;;;;;18.27;7.90;;;9.90;99.90;;;;;;5031278;28;20072;-70
2023/03/22 01:08:58;;;;;;;33.28;7.60;;;10.00;99.90;;;;;;5032161;28;20504;-70
2023/03/22 01:11:24;;;;;;;17.90;8.25;;;10.00;99.90;;;;;;5032043;28;20045;-69
2023/03/22 01:13:50;;;;;;;15.48;7.10;;;9.90;99.90;;;;;;5032210;28;20454;-70
2023/03/22 01:16:16;;;;;;;11.43;7.18;;;9.90;99.90;;;;;;5030599;28;20117;-70
2023/03/22 01:18:43;;;;;;;13.23;6.78;;;9.90;99.90;;;;;;5031107;28;20037;-70
2023/03/22 01:21:09;;;;;;;15.95;6.55;;;9.90;99.90;;;;;;5031969;28;20033;-70
2023/03/22 01:23:34;;;;;;;9.95;5.65;;;9.90;99.90;;;;;;5030895;28;20067;-70
2023/03/22 01:26:00;;;;;;;10.73;6.63;;;9.90;99.90;;;;;;5031748;28;20120;-70
2023/03/22 01:28:26;;;;;;;11.75;5.70;;;10.00;99.90;;;;;;5030684;28;20042;-70
2023/03/22 01:30:52;;;;;;;14.05;6.20;;;9.90;99.90;;;;;;5030614;28;20041;-70
2023/03/22 01:33:18;;;;;;;14.43;5.93;;;9.90;99.90;;;;;;5030991;28;20041;-70
2023/03/22 01:35:43;;;;;;;13.10;5.93;;;9.90;99.90;;;;;;5031610;28;20072;-70
2023/03/22 01:38:09;;;;;;;10.88;6.10;;;9.90;99.90;;;;;;5031888;28;20559;-70
2023/03/22 01:40:34;;;;;;;8.80;5.03;;;9.90;99.90;;;;;;5031730;28;20536;-70
2023/03/22 01:43:00;;;;;;;21.88;6.68;;;9.80;99.90;;;;;;5031855;28;20112;-70
2023/03/22 01:45:38;;;;;;;10.18;5.30;;;9.80;99.90;;;;;;5031576;28;20042;-71
2023/03/22 01:48:33;;;;;;;21.30;5.70;;;9.80;99.90;;;;;;5031859;28;20468;-70
2023/03/22 01:51:09;;;;;;;9.82;4.40;;;9.80;99.90;;;;;;5023162;28;20441;-70
2023/03/22 01:53:44;;;;;;;9.90;3.97;;;9.80;99.90;;;;;;5031520;28;20455;-69
2023/03/22 01:56:10;;;;;;;10.45;3.92;;;9.70;99.90;;;;;;5031559;28;20045;-69
2023/03/22 01:58:38;;;;;;;11.20;4.03;;;9.70;99.90;;;;;;5031585;28;20489;-69
2023/03/22 02:01:06;;;;;;;13.27;4.32;;;9.80;99.90;;;;;;5031591;28;20033;-70
2023/03/22 02:03:47;;;;;;;9.57;3.53;;;9.70;99.90;;;;;;5031233;28;20779;-70
2023/03/22 02:06:13;;;;;;;7.75;4.07;;;9.70;99.90;;;;;;5030240;28;20038;-70
2023/03/22 02:08:41;;;;;;;9.13;4.07;;;9.70;99.90;;;;;;5030535;28;20049;-70
2023/03/22 02:11:24;;;;;;;7.68;3.83;;;9.70;99.90;;;;;;5031532;28;20077;-70
2023/03/22 02:14:07;;;;;;;11.93;3.50;;;9.70;99.90;;;;;;5029885;28;20057;-70
2023/03/22 02:16:48;;;;;;;10.15;3.58;;;9.70;99.90;;;;;;5013709;28;20304;-70
2023/03/22 02:19:41;;;;;;;13.95;4.00;;;9.70;99.90;;;;;;5031583;28;20045;-70
2023/03/22 02:22:38;;;;;;;9.02;3.45;;;9.70;99.90;;;;;;5031244;28;20492;-70
2023/03/22 02:25:40;;;;;;;8.05;3.28;;;9.70;99.90;;;;;;5031389;28;20496;-70
2023/03/22 02:28:39;;;;;;;15.75;4.15;;;9.60;99.90;;;;;;5031387;28;20400;-70
2023/03/22 02:31:28;;;;;;;9.07;2.80;;;9.70;99.90;;;;;;5031588;28;20029;-70
2023/03/22 02:34:01;;;;;;;7.93;3.45;;;9.60;99.90;;;;;;5031120;28;20079;-70
2023/03/22 02:36:39;;;;;;;7.78;2.83;;;9.60;99.90;;;;;;5031227;28;20041;-70
2023/03/22 02:39:26;;;;;;;8.40;2.92;;;9.60;99.90;;;;;;5031544;28;20412;-69
2023/03/22 02:42:07;;;;;;;10.70;3.20;;;9.60;99.90;;;;;;5031322;28;20041;-70
2023/03/22 02:44:55;;;;;;;13.07;3.17;;;9.60;99.90;;;;;;5031336;28;20038;-70
2023/03/22 02:47:34;;;;;;;7.78;2.33;;;9.60;99.90;;;;;;5035132;28;20084;-70
2023/03/22 02:50:10;;;;;;;7.38;2.90;;;9.60;99.90;;;;;;5035013;28;20052;-70
2023/03/22 02:52:51;;;;;;;8.20;2.67;;;9.60;99.90;;;;;;5033510;28;20049;-70
2023/03/22 02:55:24;;;;;;;12.75;2.80;;;9.60;99.90;;;;;;5034562;28;20064;-70
2023/03/22 02:58:11;;;;;;;9.48;3.40;;;9.60;99.90;;;;;;5034606;28;20563;-70
2023/03/22 03:00:38;;;;;;;9.20;2.55;;;9.60;99.90;;;;;;5034807;28;20049;-70
2023/03/22 03:03:17;;;;;;;8.88;3.35;;;9.60;99.90;;;;;;5034569;28;20099;-70
2023/03/22 03:05:47;;;;;;;10.20;2.63;;;9.60;99.90;;;;;;5034375;28;20404;-70
2023/03/22 03:08:15;;;;;;;13.70;4.07;;;9.60;99.90;;;;;;5033391;28;20056;-70
2023/03/22 03:10:41;;;;;;;10.52;3.30;;;9.60;99.90;;;;;;5034630;28;20041;-70
2023/03/22 03:13:15;;;;;;;6.60;2.03;;;9.60;99.90;;;;;;5033031;28;20128;-70
2023/03/22 03:15:42;;;;;;;6.47;2.10;;;9.60;99.90;;;;;;5033026;28;20091;-70
2023/03/22 03:18:33;;;;;;;11.45;3.13;;;9.60;99.90;;;;;;5034585;28;20111;-70
2023/03/22 03:21:41;;;;;;;9.57;2.28;;;9.60;99.90;;;;;;5032995;28;20516;-70
2023/03/22 03:24:15;;;;;;;10.95;2.40;;;9.60;99.90;;;;;;5032523;28;20077;-70
2023/03/22 03:26:48;;;;;;;9.73;2.60;;;9.60;99.90;;;;;;5034072;28;20092;-70
2023/03/22 03:29:30;;;;;;;7.47;2.55;;;9.60;99.90;;;;;;5032863;28;20075;-70
2023/03/22 03:32:14;;;;;;;11.27;2.40;;;9.60;99.90;;;;;;5034184;28;20045;-70
2023/03/22 03:34:44;;;;;;;8.57;2.50;;;9.70;99.90;;;;;;5032549;28;20481;-70
2023/03/22 03:37:27;;;;;;;11.82;2.70;;;9.70;99.90;;;;;;5033863;28;20080;-70
2023/03/22 03:40:11;;;;;;;10.85;2.53;;;9.60;99.90;;;;;;5034122;28;20034;-70
2023/03/22 03:42:41;;;;;;;13.13;2.80;;;9.70;99.90;;;;;;5032776;28;20068;-70
2023/03/22 03:45:08;;;;;;;11.48;3.13;;;9.70;99.90;;;;;;5033675;28;20082;-70
2023/03/22 03:47:35;;;;;;;13.85;2.72;;;9.70;99.90;;;;;;5032446;28;20049;-70
2023/03/22 03:50:02;;;;;;;13.75;3.25;;;9.70;99.90;;;;;;5033950;28;20044;-70
2023/03/22 03:52:28;;;;;;;10.40;3.35;;;9.70;99.90;;;;;;5033766;28;20444;-70
2023/03/22 03:54:54;;;;;;;15.32;3.30;;;9.70;99.90;;;;;;5015664;28;20069;-70
2023/03/22 03:57:19;;;;;;;14.25;3.15;;;9.70;99.90;;;;;;5032784;28;20146;-71
2023/03/22 03:59:45;;;;;;;12.90;5.05;;;9.70;99.90;;;;;;5033574;28;20402;-70
2023/03/22 04:02:11;;;;;;;12.32;3.45;;;9.70;99.90;;;;;;5032372;28;20072;-70
2023/03/22 04:04:37;;;;;;;11.48;3.47;;;9.70;99.90;;;;;;5031947;28;20048;-70
2023/03/22 04:07:05;;;;;;;8.20;3.03;;;9.70;99.90;;;;;;5033598;28;20056;-70
2023/03/22 04:09:33;;;;;;;9.60;3.40;;;9.70;99.90;;;;;;5033506;28;20037;-70
2023/03/22 04:11:59;;;;;;;9.68;3.45;;;9.70;99.90;;;;;;5033262;28;20056;-70
2023/03/22 04:14:25;;;;;;;10.23;3.45;;;9.70;99.90;;;;;;5015214;28;20047;-70
2023/03/22 04:16:52;;;;;;;10.57;2.97;;;9.70;99.90;;;;;;5031809;28;20048;-70
2023/03/22 04:19:18;;;;;;;11.63;3.67;;;9.70;99.90;;;;;;5033337;28;20033;-70
2023/03/22 04:21:44;;;;;;;10.90;3.90;;;9.70;99.90;;;;;;5033057;28;20520;-70
2023/03/22 04:24:11;;;;;;;11.00;3.58;;;9.70;99.90;;;;;;5031566;28;20048;-70
2023/03/22 04:26:37;;;;;;;8.70;4.18;;;9.70;99.90;;;;;;5033052;28;20037;-70
2023/03/22 04:29:03;;;;;;;7.60;3.10;;;9.70;99.90;;;;;;5032973;28;20120;-70
2023/03/22 04:31:29;;;;;;;10.45;3.47;;;9.70;99.90;;;;;;5031785;28;20556;-70
2023/03/22 04:33:55;;;;;;;10.05;3.72;;;9.80;99.90;;;;;;5032693;28;20084;-70
2023/03/22 04:36:24;;;;;;;7.45;3.42;;;9.70;99.90;;;;;;5031584;28;20073;-70
2023/03/22 04:38:50;;;;;;;9.43;3.65;;;9.70;99.90;;;;;;5032881;28;20431;-70
2023/03/22 04:41:17;;;;;;;8.43;3.45;;;9.70;99.90;;;;;;5032630;28;20060;-70
2023/03/22 04:43:45;;;;;;;10.30;3.03;;;9.70;99.90;;;;;;5031617;28;20492;-70
2023/03/22 04:46:12;;;;;;;18.02;4.20;;;9.70;99.90;;;;;;5031256;28;20045;-70
2023/03/22 04:48:39;;;;;;;8.82;4.00;;;9.70;99.90;;;;;;5031365;28;20091;-70
2023/03/22 04:51:06;;;;;;;12.20;4.10;;;9.70;99.90;;;;;;5031599;28;20049;-70
2023/03/22 04:53:37;;;;;;;12.05;4.03;;;9.70;99.90;;;;;;5031017;28;20416;-70
2023/03/22 04:56:05;;;;;;;14.45;4.47;;;9.70;99.90;;;;;;5032298;28;20034;-70
2023/03/22 04:58:32;;;;;;;15.25;6.13;;;9.60;99.90;;;;;;5031082;28;20056;-70
2023/03/22 05:00:58;;;;;;;9.57;5.20;;;9.70;99.90;;;;;;5032545;28;20037;-70
2023/03/22 05:03:23;;;;;;;11.07;5.47;;;9.70;99.90;;;;;;5030856;28;20048;-70
2023/03/22 05:05:57;;;;;;;15.27;6.30;;;9.70;99.90;;;;;;5032222;28;20045;-70
2023/03/22 05:08:24;;;;;;;15.88;6.32;;;9.70;99.90;;;;;;5032191;28;20045;-70
2023/03/22 05:10:54;;;;;;;20.77;7.03;;;9.70;99.90;;;;;;5032185;28;20140;-70
2023/03/22 05:13:22;;;;;;;14.70;7.60;;;9.70;99.90;;;;;;5030771;28;20535;-70
2023/03/22 05:15:48;;;;;;;13.55;6.80;;;9.70;99.90;;;;;;5032083;28;20119;-70
2023/03/22 05:18:23;;;;;;;14.93;6.90;;;9.70;99.90;;;;;;5031019;28;20117;-70
2023/03/22 05:20:49;;;;;;;14.93;7.35;;;9.70;99.90;;;;;;5030843;28;20535;-70
2023/03/22 05:23:19;;;;;;;15.43;7.65;;;9.70;99.90;;;;;;5030800;28;20042;-70
2023/03/22 05:25:50;;;;;;;21.73;7.47;;;9.70;99.90;;;;;;5030604;28;20033;-70
2023/03/22 05:28:18;;;;;;;18.38;9.10;;;9.70;99.90;;;;;;5030905;28;20034;-70
2023/03/22 05:30:44;;;;;;;17.45;9.07;;;9.80;99.90;;;;;;5032052;28;20041;-70
2023/03/22 05:33:10;;;;;;;16.15;9.05;;;9.70;99.90;;;;;;5031858;28;20041;-70
2023/03/22 05:35:38;;;;;;;19.92;9.75;;;9.80;99.90;;;;;;5030301;28;20095;-70
2023/03/22 05:38:05;;;;;;;19.83;10.43;;;9.80;99.90;;;;;;5030833;28;20067;-70
2023/03/22 05:40:31;;;;;;;19.15;10.07;;;9.80;99.90;;;;;;5031882;28;20061;-70
2023/03/22 05:42:57;;;;;;;22.45;10.50;;;9.80;99.90;;;;;;5031840;28;20397;-70
2023/03/22 05:45:23;;;;;;;21.30;10.73;;;9.90;99.90;;;;;;5031551;28;20037;-70
2023/03/22 05:47:49;;;;;;;20.95;11.50;;;9.90;99.90;;;;;;5030479;28;20041;-70
2023/03/22 05:50:17;;;;;;;16.77;10.02;;;9.90;99.90;;;;;;5031715;28;20513;-70
2023/03/22 05:52:44;;;;;;;22.02;11.88;;;9.90;99.90;;;;;;5030477;28;20071;-70
2023/03/22 05:55:12;;;;;;;19.85;11.85;;;9.90;99.90;;;;;;5031561;28;20046;-70
2023/03/22 05:57:39;;;;;;;17.88;11.45;;;9.90;99.90;;;;;;5031612;28;20049;-70
2023/03/22 06:00:11;;;;;;;18.65;11.70;;;10.00;99.90;;;;;;5031676;28;20045;-70
2023/03/22 06:02:37;;;;;;;19.45;11.88;;;10.00;99.90;;;;;;5031470;28;20076;-70
2023/03/22 06:05:03;;;;;;;19.73;12.93;;;10.00;99.90;;;;;;5029980;28;20041;-71
2023/03/22 06:07:29;;;;;;;21.65;12.40;;;10.00;99.90;;;;;;5031745;28;20049;-70
2023/03/22 06:09:54;;;;;;;21.10;12.00;;;10.00;99.90;;;;;;5031415;28;20167;-70
2023/03/22 06:12:23;;;;;;;20.92;10.88;;;10.00;99.90;;;;;;5031419;28;20168;-70
2023/03/22 06:14:49;;;;;;;23.35;12.13;;;10.10;99.90;;;;;;5031218;28;20077;-70
2023/03/22 06:17:15;;;;;;;17.25;11.82;;;10.10;99.90;;;;;;5029863;28;20104;-70
2023/03/22 06:19:41;;;;;;;20.13;12.02;;;10.10;99.90;;;;;;5032953;28;20060;-70
2023/03/22 06:22:06;;;;;;;20.52;12.23;;;10.10;99.90;;;;;;5053888;22;20041;-72
2023/03/22 06:24:32;;;;;;;21.35;11.45;;;10.10;99.90;;;;;;5036828;28;20045;-71
2023/03/22 06:26:58;;;;;;;19.35;11.05;;;10.10;99.90;;;;;;5054925;28;20052;-71
2023/03/22 06:29:23;;;;;;;18.52;11.63;;;10.10;99.90;;;;;;5054935;28;20041;-71
2023/03/22 06:31:49;;;;;;;18.58;11.20;;;10.20;99.90;;;;;;5055037;28;20041;-71
2023/03/22 06:34:14;;;;;;;18.42;11.88;;;10.20;99.90;;;;;;5054713;28;20171;-71
2023/03/22 06:36:41;;;;;;;19.23;12.23;;;10.20;99.90;;;;;;5055097;28;20039;-71
2023/03/22 06:39:07;;;;;;;20.50;11.80;;;10.20;99.90;;;;;;5037143;28;20056;-71
2023/03/22 06:41:32;;;;;;;25.08;12.48;;;10.40;99.90;;;;;;5054622;28;20123;-71
2023/03/22 06:43:58;;;;;;;22.27;12.18;;;10.40;99.90;;;;;;5036597;28;20118;-71
2023/03/22 06:46:24;;;;;;;18.58;11.77;;;10.40;99.90;;;;;;5054662;28;20040;-71
2023/03/22 06:48:49;;;;;;;19.13;12.80;;;10.40;99.90;;;;;;5036824;28;20041;-71
2023/03/22 06:51:15;;;;;;;18.60;11.68;;;10.50;99.90;;;;;;5054863;28;20476;-71
2023/03/22 06:53:40;;;;;;;21.17;12.05;;;10.50;99.90;;;;;;5054548;28;20040;-72
2023/03/22 06:56:06;;;;;;;21.20;11.88;;;10.50;99.90;;;;;;5054492;28;20052;-71
2023/03/22 06:58:32;;;;;;;16.73;12.73;;;10.50;99.90;;;;;;5054528;28;20120;-71
2023/03/22 07:00:57;;;;;;;24.90;12.02;;;10.60;99.90;;;;;;5054601;28;20073;-71
2023/03/22 07:03:23;;;;;;;20.80;12.85;;;10.60;99.90;;;;;;5054256;28;20037;-72
2023/03/22 07:05:49;;;;;;;20.77;11.75;;;10.70;99.90;;;;;;5054300;28;20483;-71
2023/03/22 07:08:15;;;;;;;17.98;11.60;;;10.70;99.90;;;;;;5054516;28;20040;-71
2023/03/22 07:10:41;;;;;;;19.27;12.35;;;10.70;99.90;;;;;;5036512;28;20079;-71
2023/03/22 07:13:06;;;;;;;18.83;11.10;;;10.70;99.90;;;;;;5054203;28;20041;-71
2023/03/22 07:15:33;;;;;;;21.58;11.80;;;10.70;99.90;;;;;;5053933;28;20063;-71
2023/03/22 07:18:00;;;;;;;16.48;12.23;;;10.80;99.90;;;;;;5054145;28;20037;-71
2023/03/22 07:20:26;;;;;;;20.08;11.98;;;10.80;99.90;;;;;;5054162;28;20047;-71
2023/03/22 07:22:52;;;;;;;20.02;10.80;;;10.90;99.90;;;;;;5035967;28;20086;-71
2023/03/22 07:25:17;;;;;;;15.45;11.10;;;11.00;99.90;;;;;;5053764;28;20115;-71
2023/03/22 07:27:43;;;;;;;14.93;10.05;;;11.10;99.90;;;;;;5036036;28;20412;-71
2023/03/22 07:30:09;;;;;;;16.40;10.15;;;11.10;99.90;;;;;;5035636;28;20048;-71
2023/03/22 07:32:35;;;;;;;18.95;10.15;;;11.10;99.90;;;;;;5053114;28;20047;-71
2023/03/22 07:35:00;;;;;;;20.88;11.35;;;11.10;99.90;;;;;;5035724;28;20040;-71
2023/03/22 07:37:26;;;;;;;13.10;9.18;;;11.10;99.90;;;;;;5053828;28;20083;-71
2023/03/22 07:39:51;;;;;;;16.77;10.20;;;11.10;99.90;;;;;;5052720;28;20645;-70
2023/03/22 07:42:17;;;;;;;18.10;10.23;;;11.20;99.90;;;;;;5053705;28;20051;-71
2023/03/22 07:44:42;;;;;;;13.73;9.60;;;11.10;99.90;;;;;;5033583;28;20412;-71
2023/03/22 07:47:08;;;;;;;15.85;9.85;;;11.20;99.90;;;;;;5047688;28;20482;-71
2023/03/22 07:49:34;;;;;;;15.57;9.88;;;11.10;99.90;;;;;;5035741;28;20036;-70
2023/03/22 07:51:59;;;;;;;16.92;9.27;;;11.10;99.90;;;;;;5035564;28;20041;-70
2023/03/22 07:54:26;;;;;;;14.73;9.35;;;11.10;99.90;;;;;;5053298;28;20114;-71
2023/03/22 07:56:51;;;;;;;14.13;8.20;;;11.10;99.90;;;;;;5035287;28;20131;-70
2023/03/22 07:59:17;;;;;;;13.77;8.57;;;11.10;99.90;;;;;;5035872;28;20143;-72
2023/03/22 08:01:43;;;;;;;15.82;9.52;;;11.00;99.90;;;;;;5035528;28;20124;-71
2023/03/22 08:04:09;;;;;;;15.65;8.27;;;11.00;99.90;;;;;;5053209;28;20033;-71
2023/03/22 08:06:35;;;;;;;17.13;9.00;;;11.00;99.90;;;;;;5053323;28;20036;-71
2023/03/22 08:09:07;;;;;;;15.52;8.88;;;11.00;99.90;;;;;;5053114;28;20099;-71
2023/03/22 08:11:33;;;;;;;18.10;8.00;;;11.00;99.90;;;;;;5034890;28;20087;-71
2023/03/22 08:13:58;;;;;;;12.90;8.25;;;11.00;99.90;;;;;;5044622;28;20033;-71
2023/03/22 08:16:24;;;;;;;13.77;8.43;;;11.00;99.90;;;;;;5052838;28;20146;-71
2023/03/22 08:18:50;;;;;;;12.55;8.25;;;11.00;99.90;;;;;;5053271;28;20037;-70
2023/03/22 08:21:15;;;;;;;16.30;7.05;;;11.10;99.90;;;;;;5052737;28;20051;-71
2023/03/22 08:23:41;;;;;;;12.95;7.65;;;11.30;99.90;;;;;;5052364;28;20037;-71
2023/03/22 08:26:06;;;;;;;14.40;8.15;;;11.40;99.90;;;;;;5052793;28;20566;-71
2023/03/22 08:28:32;;;;;;;12.88;7.10;;;11.50;99.90;;;;;;5052813;28;20033;-71
2023/03/22 08:30:57;;;;;;;15.18;6.68;;;11.50;99.90;;;;;;5052606;28;20048;-71
2023/03/22 08:33:24;;;;;;;11.70;7.38;;;11.50;99.90;;;;;;5052486;28;20037;-71
2023/03/22 08:35:50;;;;;;;13.68;6.35;;;11.40;99.90;;;;;;5052666;28;20056;-71
2023/03/22 08:38:16;;;;;;;13.73;6.22;;;11.40;99.90;;;;;;5052828;28;20480;-71
2023/03/22 08:40:45;;;;;;;13.48;6.10;;;11.40;99.90;;;;;;5052688;28;20103;-70
2023/03/22 08:43:10;;;;;;;9.55;5.47;;;11.40;99.90;;;;;;5052260;28;20036;-70
2023/03/22 08:45:36;;;;;;;11.73;5.90;;;11.40;99.90;;;;;;5034647;28;20044;-71
2023/03/22 08:48:02;;;;;;;14.77;6.00;;;11.40;99.90;;;;;;5034666;28;20044;-71
2023/03/22 08:50:28;;;;;;;14.85;5.60;;;11.40;99.90;;;;;;5052373;28;20448;-70
2023/03/22 08:52:53;;;;;;;12.35;5.68;;;11.50;99.90;;;;;;5052516;28;20431;-70
2023/03/22 08:55:19;;;;;;;12.68;6.38;;;11.60;99.90;;;;;;5052204;28;20052;-72
2023/03/22 08:57:49;;;;;;;12.02;6.55;;;11.60;99.90;;;;;;5052286;28;20048;-72
2023/03/22 09:00:16;;;;;;;10.55;5.70;;;11.60;99.90;;;;;;5052182;28;20041;-71
2023/03/22 09:02:41;;;;;;;12.50;6.28;;;11.60;99.90;;;;;;5042663;28;20037;-71
2023/03/22 09:05:08;;;;;;;12.90;5.60;;;11.60;99.90;;;;;;5048191;28;20039;-70
2023/03/22 09:07:33;;;;;;;10.35;5.88;;;11.70;99.90;;;;;;5051726;28;20037;-70
2023/03/22 09:09:59;;;;;;;14.50;6.32;;;11.80;99.90;;;;;;5051779;28;20119;-71
2023/03/22 09:12:25;;;;;;;8.57;4.97;;;11.80;99.90;;;;;;5051527;28;20124;-70
2023/03/22 09:14:50;;;;;;;14.13;5.38;;;11.90;99.90;;;;;;5051103;28;20129;-70
2023/03/22 09:17:18;;;;;;;11.43;5.15;;;12.00;99.90;;;;;;5051406;28;20099;-70
2023/03/22 09:19:46;;;;;;;9.43;5.53;;;12.00;99.90;;;;;;5051351;28;20112;-71
2023/03/22 09:22:12;;;;;;;11.80;5.63;;;12.10;99.90;;;;;;5051241;28;20041;-70
2023/03/22 09:24:38;;;;;;;10.10;5.18;;;12.10;99.90;;;;;;5050996;28;20091;-71
2023/03/22 09:27:04;;;;;;;13.50;4.75;;;12.10;99.90;;;;;;5051304;28;20033;-70
2023/03/22 09:29:29;;;;;;;13.85;5.00;;;12.10;99.90;;;;;;5051279;28;20176;-70
2023/03/22 09:31:55;;;;;;;10.93;5.35;;;12.00;99.90;;;;;;5051286;28;20044;-71
2023/03/22 09:34:20;;;;;;;13.27;5.43;;;11.90;99.90;;;;;;5051070;28;20127;-70
2023/03/22 09:36:46;;;;;;;12.32;5.13;;;11.90;99.90;;;;;;5033223;28;20041;-70
2023/03/22 09:39:12;;;;;;;12.05;4.90;;;11.90;99.90;;;;;;5051078;28;20083;-70
2023/03/22 09:41:51;;;;;;;19.30;6.28;;;11.90;99.90;;;;;;5031078;28;20074;-70
2023/03/22 09:44:25;;;;;;;10.65;4.80;;;11.90;99.90;;;;;;5032934;28;20052;-70
2023/03/22 09:46:53;;;;;;;13.52;5.15;;;12.00;99.90;;;;;;5051197;28;20503;-70
2023/03/22 09:49:25;;;;;;;11.77;4.90;;;12.00;99.90;;;;;;5033145;28;20508;-70
2023/03/22 09:51:53;;;;;;;16.02;5.38;;;12.00;99.90;;;;;;5032961;28;20068;-71
2023/03/22 09:54:37;;;;;;;10.30;4.85;;;12.10;99.90;;;;;;5049890;28;20048;-70
2023/03/22 09:57:37;;;;;;;10.50;4.82;;;12.10;99.90;;;;;;5044644;28;20072;-70
2023/03/22 10:00:32;;;;;;;11.15;4.30;;;12.10;99.90;;;;;;5031450;28;20045;-71
2023/03/22 10:03:11;;;;;;;13.15;5.07;;;12.10;99.90;;;;;;5045663;28;20112;-70
2023/03/22 10:05:50;;;;;;;16.70;5.90;;;11.90;99.90;;;;;;5050513;28;20045;-70
2023/03/22 10:08:47;;;;;;;10.80;4.68;;;11.90;99.90;;;;;;5033047;28;20041;-70
2023/03/22 10:11:38;;;;;;;14.63;4.60;;;11.90;99.90;;;;;;5045769;28;20087;-70
2023/03/22 10:14:34;;;;;;;11.27;4.90;;;11.80;99.90;;;;;;5031065;28;20381;-70
2023/03/22 10:17:04;;;;;;;9.75;4.45;;;11.70;99.90;;;;;;5045567;28;20072;-70
2023/03/22 10:19:51;;;;;;;8.60;4.72;;;11.70;99.90;;;;;;5050921;28;20064;-70
2023/03/22 10:22:21;;;;;;;13.77;4.75;;;11.60;99.90;;;;;;5048584;28;20040;-70
2023/03/22 10:24:49;;;;;;;9.98;4.85;;;11.60;99.90;;;;;;5032750;28;20049;-70
2023/03/22 10:27:17;;;;;;;11.70;4.22;;;11.50;99.90;;;;;;5050682;28;20057;-71
2023/03/22 10:29:52;;;;;;;9.90;5.30;;;11.40;99.90;;;;;;5050406;28;20479;-70
2023/03/22 10:32:25;;;;;;;11.88;4.32;;;11.40;99.90;;;;;;5050765;28;20106;-70
2023/03/22 10:34:51;;;;;;;10.68;4.53;;;11.40;99.90;;;;;;5050366;28;20037;-70
2023/03/22 10:37:21;;;;;;;7.30;4.30;;;11.40;99.90;;;;;;5050570;28;20404;-70
2023/03/22 10:39:51;;;;;;;10.20;4.80;;;11.30;99.90;;;;;;5050420;28;20496;-70
2023/03/22 10:42:25;;;;;;;11.32;5.70;;;11.30;99.90;;;;;;5050425;28;20037;-70
2023/03/22 10:45:01;;;;;;;10.50;4.57;;;11.30;99.90;;;;;;5049516;28;20037;-70
2023/03/22 10:47:32;;;;;;;12.27;4.35;;;11.30;99.90;;;;;;5050597;28;20033;-70
2023/03/22 10:50:02;;;;;;;15.02;5.22;;;11.30;99.90;;;;;;5045740;28;20500;-70
2023/03/22 10:52:58;;;;;;;9.52;5.03;;;11.20;99.90;;;;;;5050484;28;20236;-71
2023/03/22 10:55:24;;;;;;;9.00;4.47;;;11.20;99.90;;;;;;5014722;28;20110;-70
2023/03/22 10:58:15;;;;;;;11.10;4.72;;;11.20;99.90;;;;;;5032347;28;20483;-71
2023/03/22 11:00:52;;;;;;;11.10;5.15;;;11.20;99.90;;;;;;5048108;28;20048;-71
2023/03/22 11:03:41;;;;;;;9.27;4.55;;;11.10;99.90;;;;;;5050174;28;20411;-70
2023/03/22 11:06:16;;;;;;;13.45;4.68;;;11.10;99.90;;;;;;5051906;28;20040;-71
2023/03/22 11:08:51;;;;;;;10.52;4.88;;;11.10;99.90;;;;;;5051746;28;20500;-70
2023/03/22 11:11:22;;;;;;;12.65;4.93;;;11.10;99.90;;;;;;5030669;28;20059;-71
2023/03/22 11:14:18;;;;;;;10.85;4.63;;;11.10;99.90;;;;;;5053623;28;20049;-70
2023/03/22 11:17:06;;;;;;;11.27;5.35;;;11.10;99.90;;;;;;5035796;28;20095;-72
2023/03/22 11:19:36;;;;;;;7.82;4.57;;;11.10;99.90;;;;;;5032384;28;20048;-71
2023/03/22 11:22:05;;;;;;;11.90;4.93;;;11.00;99.90;;;;;;5048565;28;20071;-70
2023/03/22 11:24:32;;;;;;;9.10;4.47;;;11.00;99.90;;;;;;5035418;28;20033;-70
2023/03/22 11:27:18;;;;;;;9.65;4.05;;;11.00;99.90;;;;;;5048401;28;20535;-70
2023/03/22 11:29:47;;;;;;;14.40;4.63;;;11.00;99.90;;;;;;5053455;28;20603;-70
2023/03/22 11:33:14;;;;;;;11.85;5.22;;;11.10;99.90;;;;;;5053142;28;20045;-70
2023/03/22 11:35:44;;;;;;;8.00;4.50;;;11.10;99.90;;;;;;4993540;28;20437;-70
2023/03/22 11:38:22;;;;;;;9.30;4.47;;;11.10;99.90;;;;;;4995148;28;20052;-70
2023/03/22 11:40:53;;;;;;;9.88;4.15;;;11.10;99.90;;;;;;5022558;28;20057;-70
2023/03/22 11:43:23;;;;;;;7.55;4.93;;;11.10;99.90;;;;;;5048039;28;20461;-70
2023/03/22 11:45:53;;;;;;;9.95;4.15;;;11.10;99.90;;;;;;5034965;28;20041;-70
2023/03/22 11:48:22;;;;;;;8.68;4.47;;;11.20;99.90;;;;;;5053244;28;20067;-70
2023/03/22 11:50:52;;;;;;;8.13;4.05;;;11.20;99.90;;;;;;5052806;28;20040;-70
2023/03/22 11:53:22;;;;;;;12.10;4.38;;;11.20;99.90;;;;;;5050009;28;20073;-70
2023/03/22 11:55:51;;;;;;;7.25;4.07;;;11.20;99.90;;;;;;5052122;28;20083;-70
2023/03/22 11:58:41;;;;;;;10.35;4.53;;;11.20;99.90;;;;;;5048039;28;20068;-70
2023/03/22 12:01:14;;;;;;;7.53;3.92;;;11.20;99.90;;;;;;5052874;28;20039;-70
2023/03/22 12:03:43;;;;;;;10.40;5.00;;;11.20;99.90;;;;;;5052509;28;20048;-70
2023/03/22 12:06:23;;;;;;;13.77;4.72;;;11.20;99.90;;;;;;5052781;28;20045;-70
2023/03/22 12:08:53;;;;;;;8.38;3.95;;;11.30;99.90;;;;;;5051609;28;20068;-70
2023/03/22 12:11:32;;;;;;;8.77;3.97;;;11.20;99.90;;;;;;5047521;28;20064;-70
2023/03/22 12:14:08;;;;;;;10.88;4.85;;;11.20;99.90;;;;;;5047823;28;20056;-70
2023/03/22 12:16:49;;;;;;;11.40;4.07;;;11.20;99.90;;;;;;5051943;28;20577;-70
2023/03/22 12:19:42;;;;;;;9.40;4.30;;;11.20;99.90;;;;;;5052613;28;20040;-70
2023/03/22 12:22:14;;;;;;;8.18;4.18;;;11.20;99.90;;;;;;5052224;28;20115;-70
2023/03/22 12:24:40;;;;;;;8.13;4.18;;;11.10;99.90;;;;;;5052292;28;20068;-69
2023/03/22 12:27:17;;;;;;;7.20;4.28;;;11.10;99.90;;;;;;5052498;28;20044;-70
2023/03/22 12:29:52;;;;;;;8.07;3.60;;;11.10;99.90;;;;;;5052271;28;20045;-70
2023/03/22 12:32:23;;;;;;;7.63;3.80;;;11.00;99.90;;;;;;5052268;28;20073;-70
2023/03/22 12:34:50;;;;;;;10.98;4.88;;;11.00;99.90;;;;;;5051727;28;20562;-70
2023/03/22 12:37:35;;;;;;;7.15;3.80;;;11.00;99.90;;;;;;5052266;28;20132;-70
2023/03/22 12:40:17;;;;;;;7.68;4.22;;;11.00;99.90;;;;;;5016822;28;20041;-70
2023/03/22 12:42:49;;;;;;;9.77;4.45;;;11.00;99.90;;;;;;5049989;28;20106;-70
2023/03/22 12:45:21;;;;;;;11.10;4.10;;;11.00;99.90;;;;;;5051711;28;20037;-70
2023/03/22 12:48:10;;;;;;;8.32;4.03;;;11.00;99.90;;;;;;5034149;28;20071;-70
2023/03/22 12:51:00;;;;;;;10.27;4.65;;;11.00;99.90;;;;;;5051993;28;20115;-70
2023/03/22 12:53:32;;;;;;;8.40;4.75;;;11.00;99.90;;;;;;5041891;28;20572;-69
2023/03/22 12:55:59;;;;;;;8.95;5.07;;;10.90;99.90;;;;;;5047147;28;20069;-70
2023/03/22 12:58:26;;;;;;;8.18;4.22;;;10.90;99.90;;;;;;5051811;28;20047;-69